KAPC

Napa County Airport

Napa, California, USA
METAR KAPC 151954Z 21011KT 10SM CLR 23/14 A2997 RMK AO2 SLP141 T02280144
Observed Flight Rules
Jul-15 @ 19:54 UTC (an hour ago) Visual Flight Rules
Wind Visibility Clouds
210° at 11 knots 10 miles
  • Clear skies
Temperatures Readings
Current 23°C / 73°F
Dewpoint 14°C / 57°F
Humidity 57%
Altimeter 29.97" Hg
Pressure 1014.1 hPa
Elevation 13
METAR KAPC 151954Z 21011KT 10SM CLR 23/14 A2997 RMK AO2 SLP141 T02280144
Observed Flight Rules
Jul-15 @ 19:54 UTC
(an hour ago)
VFR
Wind Visibility
210° at 11 knots 10 miles
Clouds
  • Clear skies
Temperature Dewpoint
23°C / 73°F 14°C / 57°F
Humidity Altimeter Pressure
57% 29.97" Hg 1014.1 hPa